Time;durP1;ratioP1;P1;durP2;ratioP2;P2;SDS_P1;SDS_P2;PMS_P1;PMS_P2;Temp;Humidity;BMP_temperature;BMP_pressure;BME280_temperature;BME280_humidity;BME280_pressure;Samples;Min_cycle;Max_cycle;Signal;HPM_P1;HPM_P2
2021/10/04 00:02:06;;;;;;;14.18;8.93;;;;;;;11.02;81.02;96348.31;6092906;23;20017;-96
2021/10/04 00:04:31;;;;;;;12.90;7.82;;;;;;;11.20;81.13;96350.94;6092912;23;20427;-96
2021/10/04 00:06:57;;;;;;;12.98;8.68;;;;;;;10.95;81.92;96352.09;6092590;23;20009;-96
2021/10/04 00:09:23;;;;;;;12.05;7.85;;;;;;;10.78;81.68;96329.25;6092622;23;20002;-96
2021/10/04 00:11:49;;;;;;;10.73;7.05;;;;;;;11.11;81.08;96350.97;6093144;23;20013;-96
2021/10/04 00:14:15;;;;;;;8.48;6.75;;;;;;;11.03;81.38;96355.25;6092794;23;20010;-96
2021/10/04 00:16:40;;;;;;;9.25;7.05;;;;;;;11.12;81.85;96363.34;6092604;23;20003;-96
2021/10/04 00:19:06;;;;;;;8.40;6.93;;;;;;;11.15;81.97;96356.25;6092827;23;20010;-96
2021/10/04 00:21:31;;;;;;;10.75;8.30;;;;;;;11.15;82.29;96394.31;6092699;23;20014;-96
2021/10/04 00:23:57;;;;;;;11.65;8.07;;;;;;;10.90;82.90;96352.72;6092712;23;20064;-96
2021/10/04 00:26:22;;;;;;;12.05;7.63;;;;;;;10.70;83.02;96336.97;6092974;23;19998;-96
2021/10/04 00:28:48;;;;;;;13.23;8.27;;;;;;;10.72;83.73;96331.84;6092659;23;20052;-96
2021/10/04 00:31:14;;;;;;;10.52;8.13;;;;;;;10.80;82.27;96339.66;6092902;23;20010;-96
2021/10/04 00:33:39;;;;;;;11.80;8.27;;;;;;;10.87;81.57;96342.06;6092357;23;20013;-96
2021/10/04 00:36:05;;;;;;;9.30;7.30;;;;;;;10.91;82.00;96370.53;6092576;23;20002;-96
2021/10/04 00:38:32;;;;;;;18.45;8.43;;;;;;;10.79;83.11;96360.63;6092725;23;20423;-96
2021/10/04 00:40:57;;;;;;;12.82;8.05;;;;;;;10.69;83.46;96349.03;6093427;23;20021;-96
2021/10/04 00:43:23;;;;;;;15.35;10.18;;;;;;;10.69;82.38;96329.28;6092246;23;20011;-96
2021/10/04 00:45:49;;;;;;;16.40;10.60;;;;;;;10.84;81.57;96346.44;6093925;23;20006;-96
2021/10/04 00:48:15;;;;;;;14.43;10.93;;;;;;;10.74;83.31;96351.13;6092343;23;20010;-96
2021/10/04 00:50:41;;;;;;;57.17;12.93;;;;;;;10.60;84.82;96335.50;6092658;23;20093;-96
2021/10/04 00:53:07;;;;;;;13.32;10.20;;;;;;;10.54;83.63;96333.84;6093635;23;20064;-96
2021/10/04 00:55:33;;;;;;;13.63;10.00;;;;;;;10.51;84.01;96326.63;6093873;23;20085;-96
2021/10/04 00:57:59;;;;;;;14.00;9.98;;;;;;;10.49;83.93;96336.00;6093618;23;20021;-96
2021/10/04 01:00:27;;;;;;;13.43;9.73;;;;;;;10.68;83.75;96360.38;6093756;23;20475;-96
2021/10/04 01:02:54;;;;;;;15.60;10.10;;;;;;;10.31;84.10;96322.44;6093744;23;20010;-96
2021/10/04 01:05:20;;;;;;;13.05;9.68;;;;;;;10.40;84.31;96343.41;6093909;23;20040;-96
2021/10/04 01:07:47;;;;;;;16.63;10.77;;;;;;;10.50;83.84;96372.03;6093757;23;20346;-96
2021/10/04 01:10:13;;;;;;;16.77;10.30;;;;;;;10.27;85.00;96334.69;6093443;23;20014;-96
2021/10/04 01:12:45;;;;;;;18.50;11.43;;;;;;;10.54;83.85;96361.75;6093763;23;20003;-96
2021/10/04 01:15:12;;;;;;;15.05;11.15;;;;;;;10.28;83.81;96341.59;6093858;23;20446;-96
2021/10/04 01:17:38;;;;;;;14.40;10.73;;;;;;;10.31;83.90;96321.69;6093625;23;20061;-96
2021/10/04 01:20:14;;;;;;;16.58;11.00;;;;;;;10.47;83.67;96370.22;6093674;23;20014;-96
2021/10/04 01:22:41;;;;;;;17.10;12.10;;;;;;;10.37;83.85;96342.34;6093712;23;20010;-96
2021/10/04 01:25:07;;;;;;;18.80;12.68;;;;;;;10.49;83.91;96367.81;6093910;23;20006;-96
2021/10/04 01:27:34;;;;;;;18.92;13.07;;;;;;;10.37;83.12;96349.75;6094155;23;20010;-96
2021/10/04 01:29:59;;;;;;;18.70;12.57;;;;;;;10.17;83.49;96329.25;6093720;23;20014;-96
2021/10/04 01:32:26;;;;;;;17.08;12.20;;;;;;;10.34;84.49;96359.56;6093698;23;20019;-96
2021/10/04 01:34:55;;;;;;;15.50;11.50;;;;;;;10.03;84.43;96342.69;6093766;23;20011;-96
2021/10/04 01:37:22;;;;;;;15.98;11.23;;;;;;;10.05;84.25;96313.88;6093704;23;20011;-96
2021/10/04 01:39:48;;;;;;;20.80;12.38;;;;;;;10.05;83.95;96315.84;6093659;23;20010;-96
2021/10/04 01:42:14;;;;;;;16.25;11.50;;;;;;;10.19;83.23;96321.41;6093501;23;20465;-96
2021/10/04 01:44:39;;;;;;;18.65;11.68;;;;;;;10.41;82.04;96321.22;6093608;23;20014;-96
2021/10/04 01:47:05;;;;;;;15.85;11.60;;;;;;;10.30;82.22;96326.38;6093777;23;20316;-96
2021/10/04 01:49:31;;;;;;;16.95;11.52;;;;;;;10.27;82.32;96307.53;6093789;23;20338;-96
2021/10/04 01:51:56;;;;;;;16.40;10.65;;;;;;;10.52;82.37;96334.31;6093705;23;20006;-96
2021/10/04 01:54:22;;;;;;;15.63;11.00;;;;;;;10.40;82.22;96319.72;6093628;23;20014;-96
2021/10/04 01:56:47;;;;;;;18.90;11.18;;;;;;;10.43;82.12;96309.91;6093857;23;19999;-96
2021/10/04 01:59:13;;;;;;;13.82;10.45;;;;;;;10.34;83.37;96313.41;6093311;23;20010;-96
2021/10/04 02:01:38;;;;;;;16.20;11.45;;;;;;;10.38;83.01;96313.97;6093510;23;20002;-95
2021/10/04 02:04:04;;;;;;;15.77;10.73;;;;;;;10.57;82.07;96327.50;6092896;23;20089;-96
2021/10/04 02:06:30;;;;;;;11.65;10.45;;;;;;;10.48;81.77;96315.47;6093530;23;20083;-96
2021/10/04 02:08:55;;;;;;;18.85;10.75;;;;;;;10.60;81.49;96329.31;6093675;23;20006;-96
2021/10/04 02:11:21;;;;;;;15.40;11.00;;;;;;;10.64;82.28;96343.47;6093565;23;20016;-96
2021/10/04 02:13:46;;;;;;;16.35;10.65;;;;;;;10.57;80.77;96319.38;6093424;23;20010;-96
2021/10/04 02:16:12;;;;;;;16.67;11.30;;;;;;;10.53;81.53;96337.78;6093330;23;20006;-96
2021/10/04 02:22:00;;;;;;;15.27;10.88;;;;;;;10.53;81.59;96329.63;6094774;23;20012;-96
2021/10/04 02:24:29;;;;;;;17.27;11.43;;;;;;;10.53;81.83;96338.53;6093898;23;20006;-96
2021/10/04 02:26:55;;;;;;;17.63;11.27;;;;;;;10.49;81.67;96333.28;6093518;23;20086;-96
2021/10/04 02:29:21;;;;;;;21.65;11.40;;;;;;;10.71;81.76;96357.50;6093331;23;20010;-95
2021/10/04 02:31:47;;;;;;;17.55;11.45;;;;;;;10.38;81.02;96321.38;6093539;23;20013;-96
2021/10/04 02:34:12;;;;;;;17.75;11.73;;;;;;;10.39;81.75;96337.22;6093167;23;20037;-96
2021/10/04 02:36:38;;;;;;;14.73;11.30;;;;;;;10.46;82.39;96347.00;6093252;23;20002;-95
2021/10/04 02:39:04;;;;;;;13.10;10.57;;;;;;;10.45;81.86;96343.53;6093393;23;20014;-96
2021/10/04 02:41:30;;;;;;;16.25;10.38;;;;;;;10.34;81.18;96345.97;6093709;23;20051;-96
2021/10/04 02:43:56;;;;;;;14.13;11.27;;;;;;;10.35;81.50;96344.78;6092909;23;20014;-95
2021/10/04 02:46:22;;;;;;;12.70;10.07;;;;;;;10.53;81.28;96348.66;6093390;23;20015;-96
2021/10/04 02:48:48;;;;;;;17.67;10.48;;;;;;;10.30;82.02;96331.06;6093483;23;20082;-96
2021/10/04 02:51:13;;;;;;;15.52;10.77;;;;;;;10.27;81.91;96331.97;6093384;23;20496;-96
2021/10/04 02:53:39;;;;;;;28.65;11.32;;;;;;;10.23;82.44;96332.09;6093368;23;20097;-96
2021/10/04 02:56:05;;;;;;;17.58;11.10;;;;;;;10.42;81.71;96351.84;6093386;23;20009;-95
2021/10/04 02:58:32;;;;;;;17.75;10.93;;;;;;;10.21;81.46;96332.53;6093302;23;20463;-95
2021/10/04 03:00:58;;;;;;;16.48;11.63;;;;;;;10.14;81.28;96327.44;6093192;23;20010;-95
2021/10/04 03:03:24;;;;;;;16.25;10.23;;;;;;;10.02;81.62;96328.38;6093262;23;20451;-96
2021/10/04 03:05:49;;;;;;;17.27;10.85;;;;;;;10.22;82.19;96355.00;6093454;23;20013;-95
2021/10/04 03:08:15;;;;;;;14.57;10.95;;;;;;;10.11;81.99;96338.44;6093057;23;20017;-96
2021/10/04 03:10:41;;;;;;;15.98;10.70;;;;;;;10.05;81.32;96335.59;6093218;23;20013;-95
2021/10/04 03:13:06;;;;;;;17.92;11.82;;;;;;;10.01;82.12;96323.38;6093490;23;20014;-96
2021/10/04 03:15:32;;;;;;;15.50;11.05;;;;;;;10.29;82.21;96364.84;6093154;23;20037;-95
2021/10/04 03:17:58;;;;;;;15.75;10.70;;;;;;;9.97;81.98;96327.00;6093275;23;20010;-96
2021/10/04 03:20:24;;;;;;;14.65;11.15;;;;;;;10.07;81.42;96338.63;6093240;23;20002;-95
2021/10/04 03:22:50;;;;;;;19.30;10.75;;;;;;;10.22;83.11;96358.47;6093307;23;20343;-96
2021/10/04 03:25:17;;;;;;;16.52;11.15;;;;;;;10.08;82.28;96340.13;6093163;23;20017;-96
2021/10/04 03:27:43;;;;;;;15.68;10.70;;;;;;;9.85;82.69;96310.88;6093419;23;20006;-95
2021/10/04 03:30:09;;;;;;;15.85;11.35;;;;;;;10.02;82.90;96328.38;6092944;23;20013;-95
2021/10/04 03:32:36;;;;;;;18.30;12.60;;;;;;;10.00;83.07;96325.34;6093183;23;20012;-95
2021/10/04 03:35:02;;;;;;;20.50;13.07;;;;;;;10.28;82.68;96360.59;6093003;23;20430;-96
2021/10/04 03:37:29;;;;;;;23.00;14.50;;;;;;;9.96;82.93;96322.06;6093294;23;20026;-96
2021/10/04 03:39:55;;;;;;;19.50;15.48;;;;;;;10.13;82.68;96349.63;6093351;23;20338;-96
2021/10/04 03:42:20;;;;;;;31.52;19.33;;;;;;;10.00;82.48;96330.00;6092805;23;20089;-95
2021/10/04 03:44:46;;;;;;;33.35;20.10;;;;;;;10.10;82.32;96334.97;6092939;23;20428;-95
2021/10/04 03:47:12;;;;;;;37.13;22.45;;;;;;;10.07;82.26;96335.16;6093100;23;20006;-96
2021/10/04 03:49:37;;;;;;;37.72;20.95;;;;;;;9.99;82.83;96329.25;6092889;23;20032;-96
2021/10/04 03:52:03;;;;;;;32.65;20.63;;;;;;;10.12;82.18;96362.44;6093308;23;20007;-95
2021/10/04 03:54:29;;;;;;;33.20;21.58;;;;;;;9.94;82.30;96343.44;6092717;23;20010;-96
2021/10/04 03:56:55;;;;;;;34.03;20.45;;;;;;;9.83;82.01;96327.63;6092931;23;20003;-96
2021/10/04 03:59:21;;;;;;;29.75;19.33;;;;;;;9.95;81.15;96342.22;6092893;23;20038;-95
2021/10/04 04:01:46;;;;;;;24.08;16.33;;;;;;;9.79;81.42;96329.72;6093308;23;20012;-96
2021/10/04 04:04:12;;;;;;;22.65;15.63;;;;;;;9.70;81.63;96319.66;6092995;23;20010;-96
2021/10/04 04:06:37;;;;;;;19.48;14.73;;;;;;;9.85;81.60;96340.72;6093063;23;20090;-96
2021/10/04 04:09:03;;;;;;;21.48;13.80;;;;;;;9.82;81.31;96334.25;6095591;23;20046;-96
2021/10/04 04:11:29;;;;;;;23.77;14.95;;;;;;;10.00;82.83;96363.31;6092831;23;20085;-96
2021/10/04 04:13:54;;;;;;;22.38;15.43;;;;;;;9.70;82.61;96319.66;6092907;23;20091;-96
2021/10/04 04:16:20;;;;;;;27.70;15.68;;;;;;;10.03;82.43;96362.44;6092909;23;20064;-96
2021/10/04 04:18:46;;;;;;;24.38;15.90;;;;;;;9.63;82.79;96311.78;6092860;23;20018;-96
2021/10/04 04:21:11;;;;;;;20.88;15.13;;;;;;;9.62;81.57;96314.97;6092805;23;20016;-96
2021/10/04 04:23:37;;;;;;;23.75;16.13;;;;;;;9.73;82.13;96355.19;6092645;23;20002;-94
2021/10/04 04:26:02;;;;;;;21.75;15.52;;;;;;;9.48;82.49;96316.34;6092504;23;20012;-95
2021/10/04 04:28:28;;;;;;;26.52;17.70;;;;;;;9.71;81.81;96356.41;6094108;23;20013;-94
2021/10/04 04:30:53;;;;;;;27.75;18.08;;;;;;;9.65;82.51;96338.47;6093709;23;20003;-94
2021/10/04 04:33:19;;;;;;;27.83;18.73;;;;;;;9.58;81.86;96336.78;6093129;23;20012;-94
2021/10/04 04:35:45;;;;;;;28.35;17.75;;;;;;;9.65;82.04;96344.66;6093603;23;20009;-95
2021/10/04 04:38:10;;;;;;;25.92;17.63;;;;;;;9.90;82.22;96369.97;6093698;23;20447;-95
2021/10/04 04:40:36;;;;;;;26.75;16.98;;;;;;;9.77;81.82;96369.38;6095635;23;20090;-95
2021/10/04 04:43:05;;;;;;;24.50;16.23;;;;;;;9.58;81.23;96344.19;6094715;23;20100;-95
2021/10/04 04:45:30;;;;;;;24.30;15.52;;;;;;;9.68;81.70;96376.28;6093671;23;20010;-95
2021/10/04 04:47:56;;;;;;;21.88;14.50;;;;;;;9.56;82.59;96360.16;6094620;23;20338;-95
2021/10/04 04:50:21;;;;;;;27.30;15.18;;;;;;;9.39;82.57;96329.88;6093816;23;20064;-95
2021/10/04 04:52:47;;;;;;;23.40;13.95;;;;;;;9.54;81.95;96360.63;6093651;23;20030;-94
2021/10/04 04:55:14;;;;;;;20.65;13.82;;;;;;;9.50;82.78;96360.00;6093426;23;20003;-96
2021/10/04 04:57:39;;;;;;;19.17;14.35;;;;;;;9.45;82.14;96342.38;6093390;23;20010;-94
2021/10/04 05:00:07;;;;;;;20.10;14.13;;;;;;;9.69;82.74;96380.53;6093844;23;20431;-94
2021/10/04 05:02:36;;;;;;;20.77;14.00;;;;;;;9.44;82.40;96349.00;6094430;23;20088;-95
2021/10/04 05:05:07;;;;;;;22.23;14.55;;;;;;;9.56;82.60;96371.75;6093564;23;20085;-94
2021/10/04 05:07:33;;;;;;;25.33;14.63;;;;;;;9.74;82.78;96387.28;6093731;23;20006;-96
2021/10/04 05:09:59;;;;;;;18.67;13.57;;;;;;;9.38;82.88;96345.38;6093733;23;20006;-95
2021/10/04 05:12:25;;;;;;;22.17;13.68;;;;;;;9.59;82.61;96376.28;6093446;23;20403;-96
2021/10/04 05:14:50;;;;;;;18.85;13.10;;;;;;;9.56;83.11;96358.19;6093580;23;20006;-96
2021/10/04 05:17:16;;;;;;;20.60;13.18;;;;;;;9.47;82.42;96362.84;6093608;23;20003;-94
2021/10/04 05:23:38;;;;;;;18.30;12.90;;;;;;;9.80;83.22;96396.34;6094917;23;20068;-95
2021/10/04 05:26:03;;;;;;;20.02;12.43;;;;;;;9.69;82.92;96380.53;6093360;23;20026;-94
2021/10/04 05:28:29;;;;;;;18.60;12.52;;;;;;;9.63;82.77;96376.88;6093550;23;20060;-94
2021/10/04 05:30:55;;;;;;;19.20;12.63;;;;;;;9.60;83.60;96364.22;6093383;23;20090;-95
2021/10/04 05:33:21;;;;;;;16.63;12.82;;;;;;;9.86;83.00;96391.06;6093276;23;20118;-95
2021/10/04 05:35:47;;;;;;;18.40;13.15;;;;;;;9.67;82.84;96371.31;6093293;23;20009;-94
2021/10/04 05:38:12;;;;;;;17.23;12.23;;;;;;;9.74;82.75;96373.72;6093341;23;20326;-95
2021/10/04 05:40:38;;;;;;;18.67;12.63;;;;;;;9.91;83.57;96393.94;6093504;23;20068;-95
2021/10/04 05:43:04;;;;;;;15.48;12.60;;;;;;;9.76;83.88;96365.91;6093389;23;20320;-94
2021/10/04 05:45:32;;;;;;;19.63;12.90;;;;;;;10.00;83.82;96392.41;6093724;23;20021;-95
2021/10/04 05:47:57;;;;;;;19.85;13.90;;;;;;;9.76;83.83;96354.31;6093606;23;20006;-95
2021/10/04 05:50:25;;;;;;;21.05;14.10;;;;;;;10.07;83.95;96401.03;6093401;23;20002;-95
2021/10/04 05:52:51;;;;;;;19.70;13.77;;;;;;;9.77;83.67;96353.84;6093303;23;20072;-95
2021/10/04 05:55:17;;;;;;;89.95;20.38;;;;;;;9.88;83.97;96381.28;6093018;23;20015;-94
2021/10/04 05:57:44;;;;;;;22.20;16.02;;;;;;;9.74;84.27;96354.72;6093312;23;20017;-94
2021/10/04 06:00:11;;;;;;;21.73;15.82;;;;;;;9.91;84.46;96377.66;6092168;23;20072;-94
2021/10/04 06:02:37;;;;;;;20.92;15.80;;;;;;;9.94;84.68;96381.41;6093266;23;20427;-93
2021/10/04 06:05:04;;;;;;;27.83;17.02;;;;;;;9.96;84.65;96376.31;6093209;23;20089;-94
2021/10/04 06:07:30;;;;;;;22.98;16.60;;;;;;;10.18;84.45;96404.03;6093346;23;20013;-94
2021/10/04 06:09:56;;;;;;;25.48;16.33;;;;;;;10.13;84.36;96380.22;6093091;23;20082;-94
2021/10/04 06:12:26;;;;;;;25.00;16.15;;;;;;;10.36;83.66;96416.09;6089865;23;20006;-95
2021/10/04 06:14:52;;;;;;;;;;;;;;;10.40;84.19;96408.56;6093080;23;20010;-95
2021/10/04 06:17:17;;;;;;;22.70;15.52;;;;;;;10.31;84.08;96387.59;6092703;23;19943;-93
2021/10/04 06:19:43;;;;;;;24.65;15.27;;;;;;;10.34;83.71;96389.41;6093152;23;20041;-95
2021/10/04 06:22:09;;;;;;;25.55;16.38;;;;;;;10.05;84.17;96365.44;6092719;23;20647;-94
2021/10/04 06:24:34;;;;;;;22.60;15.70;;;;;;;10.38;84.18;96392.72;6092848;23;20058;-94
2021/10/04 06:27:00;;;;;;;24.05;15.93;;;;;;;10.45;84.49;96394.38;6092521;23;20003;-95
2021/10/04 06:29:25;;;;;;;21.15;15.05;;;;;;;10.46;83.52;96388.50;6093294;23;20002;-94
2021/10/04 06:31:51;;;;;;;23.95;15.20;;;;;;;10.45;83.90;96373.41;6092963;23;20002;-94
2021/10/04 06:34:16;;;;;;;23.70;15.52;;;;;;;10.64;84.34;96393.13;6092283;23;20013;-94
2021/10/04 06:36:42;;;;;;;21.73;15.32;;;;;;;10.73;83.25;96395.81;6091717;23;20071;-94
2021/10/04 06:39:08;;;;;;;21.48;15.63;;;;;;;10.80;83.66;96392.00;6092920;23;20093;-94
2021/10/04 06:41:33;;;;;;;27.80;15.50;;;;;;;10.94;83.10;96402.25;6092732;23;20006;-95
2021/10/04 06:43:59;;;;;;;21.33;15.40;;;;;;;10.77;83.77;96368.50;6092107;23;20022;-94
2021/10/04 06:46:25;;;;;;;21.30;15.10;;;;;;;11.02;83.37;96399.94;6092639;23;20011;-94
2021/10/04 06:48:50;;;;;;;19.48;14.48;;;;;;;11.08;82.90;96408.22;6091967;23;20013;-95
2021/10/04 06:51:16;;;;;;;22.90;14.52;;;;;;;10.95;85.36;96379.28;6092703;23;20519;-95
2021/10/04 06:53:42;;;;;;;20.48;14.73;;;;;;;11.19;84.06;96406.53;6092996;23;20009;-94
2021/10/04 06:56:08;;;;;;;21.75;14.27;;;;;;;11.23;83.94;96398.94;6092188;23;20006;-94
2021/10/04 06:58:33;;;;;;;20.35;14.85;;;;;;;11.28;84.09;96400.28;6092373;23;20010;-94
2021/10/04 07:00:59;;;;;;;22.02;15.40;;;;;;;11.31;84.30;96391.22;6092471;23;20017;-94
2021/10/04 07:03:25;;;;;;;15.98;12.43;;;;;;;11.41;83.04;96394.63;6092625;23;20010;-94
2021/10/04 07:05:51;;;;;;;20.27;14.00;;;;;;;11.48;84.13;96392.31;6092381;23;20006;-95
2021/10/04 07:08:18;;;;;;;22.30;15.05;;;;;;;11.68;83.78;96418.94;6091977;23;20002;-94
2021/10/04 07:10:43;;;;;;;24.50;15.68;;;;;;;11.66;84.32;96396.13;6092744;23;20029;-95
2021/10/04 07:13:09;;;;;;;18.55;14.65;;;;;;;11.64;84.15;96393.13;6092142;23;20006;-94
2021/10/04 07:15:34;;;;;;;23.70;15.30;;;;;;;11.73;84.30;96384.91;6092012;23;20013;-94
2021/10/04 07:18:00;;;;;;;18.63;14.10;;;;;;;11.80;84.16;96388.03;6092385;23;20014;-94
2021/10/04 07:20:25;;;;;;;17.65;12.73;;;;;;;12.00;83.16;96409.22;6091885;23;20018;-94
2021/10/04 07:22:51;;;;;;;27.42;17.02;;;;;;;12.01;84.76;96401.81;6092806;23;20002;-94
2021/10/04 07:25:16;;;;;;;21.00;15.07;;;;;;;12.17;84.14;96417.72;6093886;23;20006;-94
2021/10/04 07:27:42;;;;;;;26.25;16.20;;;;;;;12.12;84.39;96393.84;6091545;23;20086;-94
2021/10/04 07:30:08;;;;;;;25.48;15.20;;;;;;;12.21;83.30;96390.31;6092769;23;20010;-94
2021/10/04 07:32:34;;;;;;;22.58;14.02;;;;;;;12.53;82.67;96419.38;6092642;23;20009;-94
2021/10/04 07:35:00;;;;;;;17.63;13.55;;;;;;;12.46;82.46;96397.94;6092587;23;20010;-93
2021/10/04 07:37:26;;;;;;;20.92;14.05;;;;;;;12.50;82.83;96397.75;6091904;23;20007;-93
2021/10/04 07:39:54;;;;;;;23.75;14.73;;;;;;;12.61;81.91;96408.09;6092560;23;20597;-94
2021/10/04 07:42:19;;;;;;;20.63;13.93;;;;;;;12.70;81.20;96408.00;6091133;23;20042;-93
2021/10/04 07:44:45;;;;;;;18.75;13.38;;;;;;;12.75;81.73;96399.16;6092183;23;20010;-93
2021/10/04 07:47:11;;;;;;;19.17;11.88;;;;;;;12.85;80.99;96401.31;6091596;23;20012;-93
2021/10/04 07:49:36;;;;;;;18.52;12.98;;;;;;;13.01;80.49;96415.69;6092093;23;20010;-93
2021/10/04 07:52:02;;;;;;;16.77;11.77;;;;;;;12.94;80.96;96391.53;6092181;23;20017;-94
2021/10/04 07:54:28;;;;;;;15.93;12.45;;;;;;;13.06;80.81;96398.69;6092180;23;20002;-93
2021/10/04 07:56:54;;;;;;;13.88;10.02;;;;;;;13.19;80.31;96403.81;6091973;23;20005;-93
2021/10/04 07:59:19;;;;;;;17.65;11.45;;;;;;;13.35;80.98;96423.16;6092105;23;20018;-92
2021/10/04 08:01:45;;;;;;;18.50;12.63;;;;;;;13.38;80.93;96399.66;6091652;23;20010;-93
2021/10/04 08:04:12;;;;;;;11.38;8.80;;;;;;;13.54;80.27;96399.13;6093022;23;20100;-93
2021/10/04 08:06:37;;;;;;;11.68;8.63;;;;;;;13.65;81.37;96411.44;6093043;23;20009;-93
2021/10/04 08:09:03;;;;;;;10.10;7.60;;;;;;;13.74;79.53;96409.31;6093422;23;20343;-93
2021/10/04 08:11:29;;;;;;;9.13;7.15;;;;;;;13.95;79.65;96431.16;6092929;23;20002;-93
2021/10/04 08:13:54;;;;;;;8.88;6.43;;;;;;;13.92;79.21;96418.47;6092652;23;20454;-92
2021/10/04 08:16:22;;;;;;;7.43;6.60;;;;;;;13.94;78.42;96405.06;6092269;23;20034;-92
2021/10/04 08:18:48;;;;;;;8.90;6.60;;;;;;;14.22;78.53;96432.69;6092752;23;20018;-92
2021/10/04 08:21:16;;;;;;;7.63;6.63;;;;;;;14.28;78.21;96434.28;6092930;23;20111;-92
2021/10/04 08:23:42;;;;;;;7.60;5.90;;;;;;;14.28;77.99;96411.69;6093166;23;20454;-92
2021/10/04 08:26:07;;;;;;;7.07;6.38;;;;;;;14.22;76.95;96397.19;6093122;23;20003;-92
2021/10/04 08:28:32;;;;;;;8.25;6.60;;;;;;;14.27;77.05;96393.78;6092716;23;20010;-92
2021/10/04 08:30:58;;;;;;;8.95;6.25;;;;;;;14.64;76.56;96424.72;6092592;23;20029;-92
2021/10/04 08:33:23;;;;;;;10.68;6.18;;;;;;;14.63;75.03;96408.81;6093022;23;20002;-92
2021/10/04 08:35:49;;;;;;;8.90;6.32;;;;;;;14.65;75.50;96409.09;6093283;23;20029;-92
2021/10/04 08:38:14;;;;;;;7.25;5.90;;;;;;;14.73;74.30;96414.88;6094368;23;20454;-92
2021/10/04 08:40:40;;;;;;;10.13;6.53;;;;;;;14.86;74.08;96426.94;6092660;23;20002;-92
2021/10/04 08:43:06;;;;;;;8.85;6.63;;;;;;;14.96;74.08;96430.22;6089794;23;20509;-92
2021/10/04 08:45:33;;;;;;;8.38;6.28;;;;;;;15.09;73.29;96436.06;6093194;23;20021;-92
2021/10/04 08:48:02;;;;;;;8.73;6.13;;;;;;;15.07;73.49;96429.56;6093477;23;20527;-92
2021/10/04 08:50:30;;;;;;;7.22;6.25;;;;;;;14.93;73.66;96398.41;6092457;23;20006;-91
2021/10/04 08:52:57;;;;;;;9.48;6.25;;;;;;;15.27;72.24;96432.19;6093293;23;20007;-92
2021/10/04 08:55:23;;;;;;;9.15;5.70;;;;;;;15.24;71.57;96424.25;6092770;23;20041;-92
2021/10/04 08:57:49;;;;;;;9.68;6.40;;;;;;;15.11;70.95;96387.06;6092276;23;20021;-93
2021/10/04 09:00:14;;;;;;;8.65;5.93;;;;;;;15.31;71.29;96416.31;6092514;23;20010;-92
2021/10/04 09:02:40;;;;;;;8.23;6.47;;;;;;;15.33;70.13;96400.16;6092778;23;20096;-92
2021/10/04 09:05:12;;;;;;;8.73;5.70;;;;;;;15.56;69.56;96419.47;6093040;23;20010;-92
2021/10/04 09:07:55;;;;;;;7.30;5.97;;;;;;;15.61;70.04;96429.69;6092587;23;20089;-91
2021/10/04 09:10:24;;;;;;;10.13;5.60;;;;;;;15.61;70.03;96411.28;6093084;23;20002;-92
2021/10/04 09:12:57;;;;;;;8.07;5.85;;;;;;;15.69;69.54;96406.13;6092181;23;20014;-92
2021/10/04 09:15:22;;;;;;;8.55;5.57;;;;;;;15.90;69.76;96417.66;6093134;23;20018;-92
2021/10/04 09:17:49;;;;;;;8.80;6.15;;;;;;;15.80;70.07;96408.16;6092229;23;20010;-91
2021/10/04 09:20:15;;;;;;;9.32;5.93;;;;;;;15.95;69.59;96416.94;6094243;23;20018;-92
2021/10/04 09:22:41;;;;;;;7.82;6.10;;;;;;;15.80;69.19;96391.72;6092951;23;20002;-92
2021/10/04 09:25:07;;;;;;;8.88;6.38;;;;;;;15.97;69.12;96408.97;6092949;23;20323;-92
2021/10/04 09:27:40;;;;;;;6.75;5.65;;;;;;;16.08;68.16;96427.44;6092789;23;20026;-91
2021/10/04 09:30:10;;;;;;;8.63;5.68;;;;;;;16.15;67.30;96411.28;6093013;23;20003;-92
2021/10/04 09:32:47;;;;;;;7.82;6.38;;;;;;;16.11;68.62;96405.28;6092286;23;20006;-91
2021/10/04 09:35:27;;;;;;;7.60;5.65;;;;;;;16.21;68.63;96406.56;6093146;23;20010;-91
2021/10/04 09:37:58;;;;;;;8.43;5.90;;;;;;;16.36;68.11;96417.34;6093146;23;20010;-91
2021/10/04 09:40:29;;;;;;;9.02;5.53;;;;;;;16.37;67.54;96416.09;6087183;23;20019;-92
2021/10/04 09:42:54;;;;;;;9.15;5.85;;;;;;;16.40;67.97;96409.59;6092841;23;20018;-92
2021/10/04 09:45:20;;;;;;;9.00;6.15;;;;;;;16.32;68.28;96385.94;6093252;23;20019;-91
2021/10/04 09:47:46;;;;;;;8.50;6.00;;;;;;;16.42;68.20;96398.91;6092070;23;20010;-91
2021/10/04 09:50:16;;;;;;;8.30;6.13;;;;;;;16.65;68.09;96409.91;6092560;23;20060;-91
2021/10/04 09:52:56;;;;;;;7.32;5.82;;;;;;;16.69;67.23;96410.41;6086712;23;20015;-91
2021/10/04 09:55:38;;;;;;;;;;;;;;;16.75;67.04;96419.41;6092717;23;20435;-92
2021/10/04 09:58:14;;;;;;;6.63;5.53;;;;;;;16.81;66.88;96408.47;6091823;23;19909;-91
2021/10/04 10:00:49;;;;;;;9.00;5.85;;;;;;;16.87;67.31;96415.44;6091940;23;20041;-91
2021/10/04 10:03:18;;;;;;;6.60;5.80;;;;;;;16.91;66.38;96409.72;6091599;23;20030;-92
2021/10/04 10:05:47;;;;;;;8.45;6.85;;;;;;;16.99;68.37;96418.91;6093039;23;20081;-92
2021/10/04 10:08:14;;;;;;;8.55;6.70;;;;;;;17.00;67.00;96417.69;6092301;23;20011;-90
2021/10/04 10:10:43;;;;;;;7.13;6.03;;;;;;;17.05;66.47;96397.75;6092871;23;20006;-90
2021/10/04 10:13:11;;;;;;;8.32;5.90;;;;;;;17.19;67.51;96412.44;6093825;23;20006;-91
2021/10/04 10:15:38;;;;;;;6.97;5.68;;;;;;;17.09;66.13;96392.00;6092397;23;20014;-91
2021/10/04 10:18:14;;;;;;;8.43;6.07;;;;;;;17.20;66.33;96395.47;6093199;23;20011;-90
2021/10/04 10:20:43;;;;;;;7.20;5.78;;;;;;;17.32;65.01;96401.72;6093236;23;20057;-91
2021/10/04 10:23:09;;;;;;;6.88;5.60;;;;;;;17.43;65.62;96407.19;6092131;23;20017;-91
2021/10/04 10:25:40;;;;;;;8.43;5.90;;;;;;;17.43;64.82;96390.72;6092163;23;20015;-90
2021/10/04 10:28:30;;;;;;;7.78;5.82;;;;;;;17.60;65.71;96396.16;6092610;23;20002;-90
2021/10/04 10:30:56;;;;;;;6.72;5.80;;;;;;;17.64;66.25;96385.66;6093061;23;20029;-90
2021/10/04 10:33:48;;;;;;;7.68;5.57;;;;;;;17.80;64.95;96397.88;6092604;23;20030;-90
2021/10/04 10:36:37;;;;;;;8.50;6.00;;;;;;;17.92;65.13;96387.59;6092288;23;20006;-91
2021/10/04 10:39:06;;;;;;;7.95;5.65;;;;;;;17.98;64.18;96388.31;6093734;23;20018;-90
2021/10/04 10:41:32;;;;;;;9.43;5.53;;;;;;;18.10;63.47;96389.75;6092647;23;20010;-90
2021/10/04 10:44:07;;;;;;;7.32;5.63;;;;;;;18.09;62.86;96382.75;6094421;23;20018;-90
2021/10/04 10:46:43;;;;;;;9.95;5.40;;;;;;;18.35;68.13;96390.63;6098023;23;20006;-91
2021/10/04 10:49:08;;;;;;;5.25;4.75;;;;;;;18.41;64.82;96383.09;6093027;23;20569;-91
2021/10/04 10:51:34;;;;;;;5.93;5.18;;;;;;;18.42;63.79;96370.09;6092906;23;20013;-91
2021/10/04 10:54:38;;;;;;;6.20;5.40;;;;;;;18.72;63.67;96395.66;6092407;23;20017;-91
2021/10/04 10:57:03;;;;;;;5.78;4.22;;;;;;;18.83;67.96;96370.81;6092841;23;20089;-91
2021/10/04 10:59:30;;;;;;;6.00;4.60;;;;;;;18.94;63.24;96378.25;6092868;23;20045;-92
2021/10/04 11:01:56;;;;;;;10.48;5.40;;;;;;;19.07;62.28;96383.16;6097100;23;20013;-91
2021/10/04 11:04:41;;;;;;;5.90;5.18;;;;;;;19.21;61.38;96384.75;6095474;23;20403;-92
2021/10/04 11:07:07;;;;;;;5.35;4.82;;;;;;;19.20;60.66;96364.00;6092479;23;20067;-90
2021/10/04 11:10:07;;;;;;;6.97;5.10;;;;;;;19.42;60.63;96393.31;6092873;23;20038;-90
2021/10/04 11:13:07;;;;;;;5.45;4.63;;;;;;;19.52;59.00;96380.72;6092677;23;20089;-90
2021/10/04 11:15:34;;;;;;;5.32;4.57;;;;;;;19.44;58.93;96376.28;6085151;23;20122;-91
2021/10/04 11:17:59;;;;;;;6.80;4.57;;;;;;;19.57;59.06;96366.13;6092652;23;20036;-91
2021/10/04 11:20:25;;;;;;;7.78;4.85;;;;;;;19.71;59.15;96369.78;6091821;23;20101;-91
2021/10/04 11:23:01;;;;;;;6.93;5.03;;;;;;;19.75;57.28;96364.69;6091899;23;20002;-92
2021/10/04 11:25:26;;;;;;;6.38;4.60;;;;;;;19.85;58.25;96365.09;6091905;23;20085;-91
2021/10/04 11:27:52;;;;;;;6.78;4.85;;;;;;;19.88;58.84;96355.78;6092630;23;20010;-91
2021/10/04 11:30:17;;;;;;;7.43;5.22;;;;;;;19.92;57.11;96364.53;6091918;23;20010;-91
2021/10/04 11:33:06;;;;;;;4.85;4.32;;;;;;;20.20;58.03;96374.44;6092221;23;20097;-91